sensor_id;sensor_type;location;lat;lon;timestamp;temperature;humidity
24686;DHT22;12804;51.176;4.452;2024-01-15T00:02:06;4.20;99.90
24686;DHT22;12804;51.176;4.452;2024-01-15T00:04:39;4.20;99.90
24686;DHT22;12804;51.176;4.452;2024-01-15T00:07:06;4.00;99.90
24686;DHT22;12804;51.176;4.452;2024-01-15T00:09:32;3.90;99.90
24686;DHT22;12804;51.176;4.452;2024-01-15T00:11:59;4.00;99.90
24686;DHT22;12804;51.176;4.452;2024-01-15T00:14:25;4.00;99.90
24686;DHT22;12804;51.176;4.452;2024-01-15T00:16:51;4.10;99.90
24686;DHT22;12804;51.176;4.452;2024-01-15T00:19:17;4.10;99.90
24686;DHT22;12804;51.176;4.452;2024-01-15T00:21:44;4.10;99.90
24686;DHT22;12804;51.176;4.452;2024-01-15T00:24:10;4.10;99.90
24686;DHT22;12804;51.176;4.452;2024-01-15T00:26:36;4.20;99.90
24686;DHT22;12804;51.176;4.452;2024-01-15T00:29:02;4.30;99.90
24686;DHT22;12804;51.176;4.452;2024-01-15T00:31:29;4.30;99.90
24686;DHT22;12804;51.176;4.452;2024-01-15T00:33:58;4.30;99.90
24686;DHT22;12804;51.176;4.452;2024-01-15T00:36:24;4.10;99.90
24686;DHT22;12804;51.176;4.452;2024-01-15T00:38:49;4.10;99.90
24686;DHT22;12804;51.176;4.452;2024-01-15T00:41:15;4.20;99.90
24686;DHT22;12804;51.176;4.452;2024-01-15T00:43:41;4.10;99.90
24686;DHT22;12804;51.176;4.452;2024-01-15T00:46:07;4.10;99.90
24686;DHT22;12804;51.176;4.452;2024-01-15T00:48:33;4.00;99.90
24686;DHT22;12804;51.176;4.452;2024-01-15T00:50:59;3.90;99.90
24686;DHT22;12804;51.176;4.452;2024-01-15T00:53:25;4.00;99.90
24686;DHT22;12804;51.176;4.452;2024-01-15T00:55:51;3.80;99.90
24686;DHT22;12804;51.176;4.452;2024-01-15T00:58:18;3.80;99.90
24686;DHT22;12804;51.176;4.452;2024-01-15T01:00:44;3.80;99.90
24686;DHT22;12804;51.176;4.452;2024-01-15T01:03:09;3.90;99.90
24686;DHT22;12804;51.176;4.452;2024-01-15T01:05:35;3.90;99.90
24686;DHT22;12804;51.176;4.452;2024-01-15T01:08:01;4.00;99.90
24686;DHT22;12804;51.176;4.452;2024-01-15T01:10:27;3.90;99.90
24686;DHT22;12804;51.176;4.452;2024-01-15T01:12:53;3.90;99.90
24686;DHT22;12804;51.176;4.452;2024-01-15T01:15:19;4.00;99.90
24686;DHT22;12804;51.176;4.452;2024-01-15T01:17:45;3.90;99.90
24686;DHT22;12804;51.176;4.452;2024-01-15T01:20:12;3.80;99.90
24686;DHT22;12804;51.176;4.452;2024-01-15T01:22:37;3.90;99.90
24686;DHT22;12804;51.176;4.452;2024-01-15T01:25:03;3.90;99.90
24686;DHT22;12804;51.176;4.452;2024-01-15T01:27:29;3.90;99.90
24686;DHT22;12804;51.176;4.452;2024-01-15T01:29:55;3.80;99.90
24686;DHT22;12804;51.176;4.452;2024-01-15T01:32:21;3.80;99.90
24686;DHT22;12804;51.176;4.452;2024-01-15T01:34:47;3.90;99.90
24686;DHT22;12804;51.176;4.452;2024-01-15T01:37:13;3.70;99.90
24686;DHT22;12804;51.176;4.452;2024-01-15T01:39:42;3.60;99.90
24686;DHT22;12804;51.176;4.452;2024-01-15T01:42:09;3.60;99.90
24686;DHT22;12804;51.176;4.452;2024-01-15T01:44:34;3.40;99.90
24686;DHT22;12804;51.176;4.452;2024-01-15T01:47:01;3.30;99.90
24686;DHT22;12804;51.176;4.452;2024-01-15T01:49:27;3.30;99.90
24686;DHT22;12804;51.176;4.452;2024-01-15T01:51:57;3.40;99.90
24686;DHT22;12804;51.176;4.452;2024-01-15T01:54:25;3.30;99.90
24686;DHT22;12804;51.176;4.452;2024-01-15T01:56:51;3.20;99.90
24686;DHT22;12804;51.176;4.452;2024-01-15T01:59:17;3.20;99.90
24686;DHT22;12804;51.176;4.452;2024-01-15T02:01:44;3.20;99.90
24686;DHT22;12804;51.176;4.452;2024-01-15T02:04:11;3.40;99.90
24686;DHT22;12804;51.176;4.452;2024-01-15T02:06:37;3.50;99.90
24686;DHT22;12804;51.176;4.452;2024-01-15T02:09:03;3.50;99.90
24686;DHT22;12804;51.176;4.452;2024-01-15T02:11:31;3.40;99.90
24686;DHT22;12804;51.176;4.452;2024-01-15T02:13:57;3.30;99.90
24686;DHT22;12804;51.176;4.452;2024-01-15T02:16:23;3.30;99.90
24686;DHT22;12804;51.176;4.452;2024-01-15T02:18:48;3.30;99.90
24686;DHT22;12804;51.176;4.452;2024-01-15T02:21:15;3.40;99.90
24686;DHT22;12804;51.176;4.452;2024-01-15T02:23:41;3.50;99.90
24686;DHT22;12804;51.176;4.452;2024-01-15T02:26:07;3.60;99.90
24686;DHT22;12804;51.176;4.452;2024-01-15T02:28:33;3.60;99.90
24686;DHT22;12804;51.176;4.452;2024-01-15T02:31:00;3.70;99.90
24686;DHT22;12804;51.176;4.452;2024-01-15T02:33:25;3.70;99.90
24686;DHT22;12804;51.176;4.452;2024-01-15T02:35:51;3.60;99.90
24686;DHT22;12804;51.176;4.452;2024-01-15T02:38:17;3.50;99.90
24686;DHT22;12804;51.176;4.452;2024-01-15T02:40:44;3.60;99.90
24686;DHT22;12804;51.176;4.452;2024-01-15T02:43:10;3.60;99.90
24686;DHT22;12804;51.176;4.452;2024-01-15T02:45:36;3.60;99.90
24686;DHT22;12804;51.176;4.452;2024-01-15T02:48:02;3.60;99.90
24686;DHT22;12804;51.176;4.452;2024-01-15T02:50:28;3.70;99.90
24686;DHT22;12804;51.176;4.452;2024-01-15T02:52:54;3.70;99.90
24686;DHT22;12804;51.176;4.452;2024-01-15T02:55:20;3.70;99.90
24686;DHT22;12804;51.176;4.452;2024-01-15T02:57:45;3.60;99.90
24686;DHT22;12804;51.176;4.452;2024-01-15T03:00:11;3.70;99.90
24686;DHT22;12804;51.176;4.452;2024-01-15T03:02:38;3.90;99.90
24686;DHT22;12804;51.176;4.452;2024-01-15T03:05:09;3.90;99.90
24686;DHT22;12804;51.176;4.452;2024-01-15T03:07:35;3.90;99.90
24686;DHT22;12804;51.176;4.452;2024-01-15T03:10:02;3.90;99.90
24686;DHT22;12804;51.176;4.452;2024-01-15T03:12:27;3.90;99.90
24686;DHT22;12804;51.176;4.452;2024-01-15T03:14:53;4.00;99.90
24686;DHT22;12804;51.176;4.452;2024-01-15T03:17:19;3.90;99.90
24686;DHT22;12804;51.176;4.452;2024-01-15T03:19:45;4.00;99.90
24686;DHT22;12804;51.176;4.452;2024-01-15T03:22:11;4.10;99.90
24686;DHT22;12804;51.176;4.452;2024-01-15T03:24:37;4.00;99.90
24686;DHT22;12804;51.176;4.452;2024-01-15T03:27:03;3.90;99.90
24686;DHT22;12804;51.176;4.452;2024-01-15T03:29:29;3.80;99.90
24686;DHT22;12804;51.176;4.452;2024-01-15T03:31:55;3.80;99.90
24686;DHT22;12804;51.176;4.452;2024-01-15T03:34:21;3.90;99.90
24686;DHT22;12804;51.176;4.452;2024-01-15T03:36:46;3.90;99.90
24686;DHT22;12804;51.176;4.452;2024-01-15T03:39:12;3.80;99.90
24686;DHT22;12804;51.176;4.452;2024-01-15T03:41:38;3.80;99.90
24686;DHT22;12804;51.176;4.452;2024-01-15T03:44:04;3.70;99.90
24686;DHT22;12804;51.176;4.452;2024-01-15T03:46:31;3.50;99.90
24686;DHT22;12804;51.176;4.452;2024-01-15T03:48:57;3.60;99.90
24686;DHT22;12804;51.176;4.452;2024-01-15T03:51:23;3.60;99.90
24686;DHT22;12804;51.176;4.452;2024-01-15T03:53:49;3.70;99.90
24686;DHT22;12804;51.176;4.452;2024-01-15T03:56:15;3.80;99.90
24686;DHT22;12804;51.176;4.452;2024-01-15T03:58:40;3.80;99.90
24686;DHT22;12804;51.176;4.452;2024-01-15T04:01:10;3.60;99.90
24686;DHT22;12804;51.176;4.452;2024-01-15T04:03:36;3.50;99.90
24686;DHT22;12804;51.176;4.452;2024-01-15T04:06:05;3.60;99.90
24686;DHT22;12804;51.176;4.452;2024-01-15T04:08:31;3.50;99.90
24686;DHT22;12804;51.176;4.452;2024-01-15T04:10:57;3.60;99.90
24686;DHT22;12804;51.176;4.452;2024-01-15T04:13:23;3.60;99.90
24686;DHT22;12804;51.176;4.452;2024-01-15T04:15:48;3.50;99.90
24686;DHT22;12804;51.176;4.452;2024-01-15T04:18:16;3.60;99.90
24686;DHT22;12804;51.176;4.452;2024-01-15T04:20:42;3.60;99.90
24686;DHT22;12804;51.176;4.452;2024-01-15T04:23:07;3.40;99.90
24686;DHT22;12804;51.176;4.452;2024-01-15T04:25:33;3.40;99.90
24686;DHT22;12804;51.176;4.452;2024-01-15T04:27:59;3.40;99.90
24686;DHT22;12804;51.176;4.452;2024-01-15T04:30:25;3.50;99.90
24686;DHT22;12804;51.176;4.452;2024-01-15T04:32:51;3.40;99.90
24686;DHT22;12804;51.176;4.452;2024-01-15T04:35:16;3.40;99.90
24686;DHT22;12804;51.176;4.452;2024-01-15T04:37:42;3.40;99.90
24686;DHT22;12804;51.176;4.452;2024-01-15T04:40:09;3.40;99.90
24686;DHT22;12804;51.176;4.452;2024-01-15T04:42:35;3.40;99.90
24686;DHT22;12804;51.176;4.452;2024-01-15T04:45:00;3.30;99.90
24686;DHT22;12804;51.176;4.452;2024-01-15T04:47:26;3.20;99.90
24686;DHT22;12804;51.176;4.452;2024-01-15T04:49:52;3.10;99.90
24686;DHT22;12804;51.176;4.452;2024-01-15T04:52:18;3.10;99.90
24686;DHT22;12804;51.176;4.452;2024-01-15T04:54:44;3.00;99.90
24686;DHT22;12804;51.176;4.452;2024-01-15T04:57:10;3.20;99.90
24686;DHT22;12804;51.176;4.452;2024-01-15T04:59:35;3.40;99.90
24686;DHT22;12804;51.176;4.452;2024-01-15T05:02:01;3.40;99.90
24686;DHT22;12804;51.176;4.452;2024-01-15T05:04:27;3.50;99.90
24686;DHT22;12804;51.176;4.452;2024-01-15T05:06:53;3.40;99.90
24686;DHT22;12804;51.176;4.452;2024-01-15T05:09:19;3.40;99.90
24686;DHT22;12804;51.176;4.452;2024-01-15T05:11:45;3.40;99.90
24686;DHT22;12804;51.176;4.452;2024-01-15T05:14:11;3.50;99.90
24686;DHT22;12804;51.176;4.452;2024-01-15T05:16:46;3.40;99.90
24686;DHT22;12804;51.176;4.452;2024-01-15T05:19:12;3.50;99.90
24686;DHT22;12804;51.176;4.452;2024-01-15T05:21:38;3.50;99.90
24686;DHT22;12804;51.176;4.452;2024-01-15T05:24:03;3.50;99.90
24686;DHT22;12804;51.176;4.452;2024-01-15T05:26:29;3.40;99.90
24686;DHT22;12804;51.176;4.452;2024-01-15T05:28:55;3.40;99.90
24686;DHT22;12804;51.176;4.452;2024-01-15T05:31:21;3.40;99.90
24686;DHT22;12804;51.176;4.452;2024-01-15T05:33:47;3.40;99.90
24686;DHT22;12804;51.176;4.452;2024-01-15T05:36:12;3.30;99.90
24686;DHT22;12804;51.176;4.452;2024-01-15T05:38:38;3.30;99.90
24686;DHT22;12804;51.176;4.452;2024-01-15T05:41:05;3.10;99.90
24686;DHT22;12804;51.176;4.452;2024-01-15T05:43:31;3.10;99.90
24686;DHT22;12804;51.176;4.452;2024-01-15T05:45:57;3.10;99.90
24686;DHT22;12804;51.176;4.452;2024-01-15T05:48:22;3.10;99.90
24686;DHT22;12804;51.176;4.452;2024-01-15T05:50:48;3.00;99.90
24686;DHT22;12804;51.176;4.452;2024-01-15T05:53:14;3.10;99.90
24686;DHT22;12804;51.176;4.452;2024-01-15T05:55:40;3.10;99.90
24686;DHT22;12804;51.176;4.452;2024-01-15T05:58:06;3.00;99.90
24686;DHT22;12804;51.176;4.452;2024-01-15T06:00:32;3.00;99.90
24686;DHT22;12804;51.176;4.452;2024-01-15T06:03:01;3.00;99.90
24686;DHT22;12804;51.176;4.452;2024-01-15T06:05:27;3.00;99.90
24686;DHT22;12804;51.176;4.452;2024-01-15T06:07:53;3.10;99.90
24686;DHT22;12804;51.176;4.452;2024-01-15T06:10:19;3.10;99.90
24686;DHT22;12804;51.176;4.452;2024-01-15T06:12:44;3.20;99.90
24686;DHT22;12804;51.176;4.452;2024-01-15T06:15:11;3.20;99.90
24686;DHT22;12804;51.176;4.452;2024-01-15T06:17:37;3.20;99.90
24686;DHT22;12804;51.176;4.452;2024-01-15T06:20:03;3.10;99.90
24686;DHT22;12804;51.176;4.452;2024-01-15T06:22:30;3.10;99.90
24686;DHT22;12804;51.176;4.452;2024-01-15T06:24:55;3.30;99.90
24686;DHT22;12804;51.176;4.452;2024-01-15T06:27:21;3.40;99.90
24686;DHT22;12804;51.176;4.452;2024-01-15T06:29:47;3.40;99.90
24686;DHT22;12804;51.176;4.452;2024-01-15T06:32:13;3.40;99.90
24686;DHT22;12804;51.176;4.452;2024-01-15T06:34:40;3.40;99.90
24686;DHT22;12804;51.176;4.452;2024-01-15T06:37:06;3.50;99.90
24686;DHT22;12804;51.176;4.452;2024-01-15T06:39:31;3.60;99.90
24686;DHT22;12804;51.176;4.452;2024-01-15T06:41:57;3.60;99.90
24686;DHT22;12804;51.176;4.452;2024-01-15T06:44:23;3.60;99.90
24686;DHT22;12804;51.176;4.452;2024-01-15T06:46:49;3.60;99.90
24686;DHT22;12804;51.176;4.452;2024-01-15T06:49:15;3.60;99.90
24686;DHT22;12804;51.176;4.452;2024-01-15T06:51:41;3.50;99.90
24686;DHT22;12804;51.176;4.452;2024-01-15T06:54:07;3.60;99.90
24686;DHT22;12804;51.176;4.452;2024-01-15T06:56:33;3.80;99.90
24686;DHT22;12804;51.176;4.452;2024-01-15T06:58:59;4.60;99.90
24686;DHT22;12804;51.176;4.452;2024-01-15T07:01:25;5.20;99.90
24686;DHT22;12804;51.176;4.452;2024-01-15T07:03:50;4.80;90.70
24686;DHT22;12804;51.176;4.452;2024-01-15T07:06:16;4.60;94.10
24686;DHT22;12804;51.176;4.452;2024-01-15T07:08:43;4.30;95.20
24686;DHT22;12804;51.176;4.452;2024-01-15T07:11:08;4.10;99.50
24686;DHT22;12804;51.176;4.452;2024-01-15T07:13:36;4.00;99.90
24686;DHT22;12804;51.176;4.452;2024-01-15T07:16:02;4.00;99.90
24686;DHT22;12804;51.176;4.452;2024-01-15T07:18:28;3.90;99.90
24686;DHT22;12804;51.176;4.452;2024-01-15T07:20:54;3.80;99.90
24686;DHT22;12804;51.176;4.452;2024-01-15T07:23:19;3.80;99.90
24686;DHT22;12804;51.176;4.452;2024-01-15T07:25:45;4.00;99.90
24686;DHT22;12804;51.176;4.452;2024-01-15T07:28:11;4.60;99.90
24686;DHT22;12804;51.176;4.452;2024-01-15T07:30:37;4.60;99.90
24686;DHT22;12804;51.176;4.452;2024-01-15T07:33:05;4.40;99.90
24686;DHT22;12804;51.176;4.452;2024-01-15T07:35:31;4.30;99.90
24686;DHT22;12804;51.176;4.452;2024-01-15T07:37:57;4.20;99.90
24686;DHT22;12804;51.176;4.452;2024-01-15T07:40:23;4.00;99.90
24686;DHT22;12804;51.176;4.452;2024-01-15T07:42:51;4.00;99.90
24686;DHT22;12804;51.176;4.452;2024-01-15T07:45:16;4.00;99.90
24686;DHT22;12804;51.176;4.452;2024-01-15T07:47:43;3.90;99.90
24686;DHT22;12804;51.176;4.452;2024-01-15T07:50:09;3.90;99.90
24686;DHT22;12804;51.176;4.452;2024-01-15T07:52:34;3.70;99.90
24686;DHT22;12804;51.176;4.452;2024-01-15T07:55:00;3.50;99.90
24686;DHT22;12804;51.176;4.452;2024-01-15T07:57:26;3.60;99.90
24686;DHT22;12804;51.176;4.452;2024-01-15T07:59:52;3.50;99.90
24686;DHT22;12804;51.176;4.452;2024-01-15T08:02:18;3.50;99.90
24686;DHT22;12804;51.176;4.452;2024-01-15T08:04:44;4.20;99.90
24686;DHT22;12804;51.176;4.452;2024-01-15T08:07:10;4.10;99.90
24686;DHT22;12804;51.176;4.452;2024-01-15T08:09:36;4.00;99.90
24686;DHT22;12804;51.176;4.452;2024-01-15T08:12:02;4.00;99.90
24686;DHT22;12804;51.176;4.452;2024-01-15T08:14:29;3.80;99.90
24686;DHT22;12804;51.176;4.452;2024-01-15T08:16:54;4.00;99.90
24686;DHT22;12804;51.176;4.452;2024-01-15T08:19:20;4.00;99.90
24686;DHT22;12804;51.176;4.452;2024-01-15T08:21:46;4.00;99.90
24686;DHT22;12804;51.176;4.452;2024-01-15T08:24:12;3.90;97.10
24686;DHT22;12804;51.176;4.452;2024-01-15T08:26:37;3.90;96.70
24686;DHT22;12804;51.176;4.452;2024-01-15T08:29:03;4.00;93.10
24686;DHT22;12804;51.176;4.452;2024-01-15T08:31:29;4.10;90.10
24686;DHT22;12804;51.176;4.452;2024-01-15T08:33:55;4.30;80.10
24686;DHT22;12804;51.176;4.452;2024-01-15T08:36:23;4.20;80.10
24686;DHT22;12804;51.176;4.452;2024-01-15T08:38:50;4.00;81.60
24686;DHT22;12804;51.176;4.452;2024-01-15T08:41:15;4.10;89.00
24686;DHT22;12804;51.176;4.452;2024-01-15T08:43:41;4.30;76.60
24686;DHT22;12804;51.176;4.452;2024-01-15T08:46:07;4.30;70.90
24686;DHT22;12804;51.176;4.452;2024-01-15T08:48:33;4.20;78.30
24686;DHT22;12804;51.176;4.452;2024-01-15T08:50:59;4.20;80.20
24686;DHT22;12804;51.176;4.452;2024-01-15T08:53:24;4.20;76.50
24686;DHT22;12804;51.176;4.452;2024-01-15T08:55:51;4.20;77.90
24686;DHT22;12804;51.176;4.452;2024-01-15T08:58:16;4.30;72.30
24686;DHT22;12804;51.176;4.452;2024-01-15T09:00:43;4.20;73.50
24686;DHT22;12804;51.176;4.452;2024-01-15T09:03:09;4.10;77.10
24686;DHT22;12804;51.176;4.452;2024-01-15T09:05:35;4.10;79.90
24686;DHT22;12804;51.176;4.452;2024-01-15T09:08:01;4.10;80.60
24686;DHT22;12804;51.176;4.452;2024-01-15T09:10:26;4.00;82.00
24686;DHT22;12804;51.176;4.452;2024-01-15T09:12:52;4.00;81.70
24686;DHT22;12804;51.176;4.452;2024-01-15T09:15:18;4.10;76.20
24686;DHT22;12804;51.176;4.452;2024-01-15T09:17:44;4.10;74.60
24686;DHT22;12804;51.176;4.452;2024-01-15T09:20:11;4.10;72.70
24686;DHT22;12804;51.176;4.452;2024-01-15T09:22:40;4.00;78.30
24686;DHT22;12804;51.176;4.452;2024-01-15T09:25:09;3.90;86.30
24686;DHT22;12804;51.176;4.452;2024-01-15T09:27:35;3.80;91.40
24686;DHT22;12804;51.176;4.452;2024-01-15T09:30:02;3.80;92.80
24686;DHT22;12804;51.176;4.452;2024-01-15T09:32:28;4.00;90.50
24686;DHT22;12804;51.176;4.452;2024-01-15T09:34:54;4.10;84.70
24686;DHT22;12804;51.176;4.452;2024-01-15T09:37:21;4.10;77.20
24686;DHT22;12804;51.176;4.452;2024-01-15T09:39:46;4.20;78.20
24686;DHT22;12804;51.176;4.452;2024-01-15T09:42:14;4.10;79.50
24686;DHT22;12804;51.176;4.452;2024-01-15T09:44:40;4.30;77.70
24686;DHT22;12804;51.176;4.452;2024-01-15T09:47:07;4.30;66.40
24686;DHT22;12804;51.176;4.452;2024-01-15T09:49:33;4.40;68.20
24686;DHT22;12804;51.176;4.452;2024-01-15T09:51:59;4.40;65.50
24686;DHT22;12804;51.176;4.452;2024-01-15T09:54:26;4.30;68.80
24686;DHT22;12804;51.176;4.452;2024-01-15T09:56:52;4.40;68.50
24686;DHT22;12804;51.176;4.452;2024-01-15T09:59:19;4.50;63.30
24686;DHT22;12804;51.176;4.452;2024-01-15T10:01:46;4.50;62.90
24686;DHT22;12804;51.176;4.452;2024-01-15T10:04:14;4.80;56.40
24686;DHT22;12804;51.176;4.452;2024-01-15T10:06:45;5.00;39.50
24686;DHT22;12804;51.176;4.452;2024-01-15T10:09:14;4.80;50.40
24686;DHT22;12804;51.176;4.452;2024-01-15T10:11:44;5.20;1.00
24686;DHT22;12804;51.176;4.452;2024-01-15T10:14:10;5.60;1.00
24686;DHT22;12804;51.176;4.452;2024-01-15T10:16:40;6.00;1.00
24686;DHT22;12804;51.176;4.452;2024-01-15T10:19:06;6.10;1.00
24686;DHT22;12804;51.176;4.452;2024-01-15T10:21:36;6.30;1.00
24686;DHT22;12804;51.176;4.452;2024-01-15T10:24:03;6.20;1.00
24686;DHT22;12804;51.176;4.452;2024-01-15T10:26:30;6.70;1.00
24686;DHT22;12804;51.176;4.452;2024-01-15T10:28:58;6.50;1.00
24686;DHT22;12804;51.176;4.452;2024-01-15T10:31:24;6.50;1.00
24686;DHT22;12804;51.176;4.452;2024-01-15T10:33:50;6.60;1.00
24686;DHT22;12804;51.176;4.452;2024-01-15T10:36:17;6.50;1.00
24686;DHT22;12804;51.176;4.452;2024-01-15T10:38:44;6.10;1.00
24686;DHT22;12804;51.176;4.452;2024-01-15T10:41:10;6.20;1.00
24686;DHT22;12804;51.176;4.452;2024-01-15T10:43:36;6.10;1.00
24686;DHT22;12804;51.176;4.452;2024-01-15T10:46:02;6.20;1.00
24686;DHT22;12804;51.176;4.452;2024-01-15T10:48:28;6.10;1.00
24686;DHT22;12804;51.176;4.452;2024-01-15T10:50:57;6.00;1.00
24686;DHT22;12804;51.176;4.452;2024-01-15T10:53:24;5.70;1.00
24686;DHT22;12804;51.176;4.452;2024-01-15T10:55:54;5.70;1.00
24686;DHT22;12804;51.176;4.452;2024-01-15T10:58:21;5.70;1.00
24686;DHT22;12804;51.176;4.452;2024-01-15T11:00:50;5.70;1.00
24686;DHT22;12804;51.176;4.452;2024-01-15T11:03:16;5.50;1.00
24686;DHT22;12804;51.176;4.452;2024-01-15T11:05:44;5.40;1.00
24686;DHT22;12804;51.176;4.452;2024-01-15T11:08:10;5.50;1.00
24686;DHT22;12804;51.176;4.452;2024-01-15T11:16:03;5.30;1.00
24686;DHT22;12804;51.176;4.452;2024-01-15T11:18:36;5.30;1.00
24686;DHT22;12804;51.176;4.452;2024-01-15T11:23:43;5.40;1.00
24686;DHT22;12804;51.176;4.452;2024-01-15T11:26:30;5.50;1.00
24686;DHT22;12804;51.176;4.452;2024-01-15T11:28:57;6.00;1.00
24686;DHT22;12804;51.176;4.452;2024-01-15T11:34:10;6.30;1.00
24686;DHT22;12804;51.176;4.452;2024-01-15T11:39:43;5.20;1.00
24686;DHT22;12804;51.176;4.452;2024-01-15T11:42:11;5.00;1.00
24686;DHT22;12804;51.176;4.452;2024-01-15T11:44:41;4.70;22.30
24686;DHT22;12804;51.176;4.452;2024-01-15T11:47:08;4.60;61.00
24686;DHT22;12804;51.176;4.452;2024-01-15T11:50:00;4.20;94.00
24686;DHT22;12804;51.176;4.452;2024-01-15T11:52:28;3.70;99.90
24686;DHT22;12804;51.176;4.452;2024-01-15T11:55:19;3.40;99.90
24686;DHT22;12804;51.176;4.452;2024-01-15T11:57:52;3.30;99.90
24686;DHT22;12804;51.176;4.452;2024-01-15T12:00:22;3.40;99.90
24686;DHT22;12804;51.176;4.452;2024-01-15T12:02:49;3.50;99.90
24686;DHT22;12804;51.176;4.452;2024-01-15T12:05:17;3.70;99.90
24686;DHT22;12804;51.176;4.452;2024-01-15T12:07:44;3.90;99.90
24686;DHT22;12804;51.176;4.452;2024-01-15T12:10:12;4.00;99.90
24686;DHT22;12804;51.176;4.452;2024-01-15T12:15:12;4.00;99.90
24686;DHT22;12804;51.176;4.452;2024-01-15T12:17:38;4.20;99.90
24686;DHT22;12804;51.176;4.452;2024-01-15T12:20:05;4.20;99.90
24686;DHT22;12804;51.176;4.452;2024-01-15T12:22:31;4.20;99.90
24686;DHT22;12804;51.176;4.452;2024-01-15T12:24:57;4.00;99.90
24686;DHT22;12804;51.176;4.452;2024-01-15T12:27:23;3.70;99.90
24686;DHT22;12804;51.176;4.452;2024-01-15T12:29:49;3.60;99.90
24686;DHT22;12804;51.176;4.452;2024-01-15T12:32:15;3.60;99.90
24686;DHT22;12804;51.176;4.452;2024-01-15T12:34:41;3.70;99.90
24686;DHT22;12804;51.176;4.452;2024-01-15T12:37:08;3.50;99.90
24686;DHT22;12804;51.176;4.452;2024-01-15T12:39:34;3.20;99.90
24686;DHT22;12804;51.176;4.452;2024-01-15T12:42:02;3.10;99.90
24686;DHT22;12804;51.176;4.452;2024-01-15T12:44:28;2.90;99.90
24686;DHT22;12804;51.176;4.452;2024-01-15T12:46:54;3.00;99.90
24686;DHT22;12804;51.176;4.452;2024-01-15T12:49:21;3.10;99.90
24686;DHT22;12804;51.176;4.452;2024-01-15T12:51:58;3.20;99.90
24686;DHT22;12804;51.176;4.452;2024-01-15T12:54:25;3.40;99.90
24686;DHT22;12804;51.176;4.452;2024-01-15T12:56:51;3.40;99.90
24686;DHT22;12804;51.176;4.452;2024-01-15T12:59:18;3.30;99.90
24686;DHT22;12804;51.176;4.452;2024-01-15T13:01:44;3.30;99.90
24686;DHT22;12804;51.176;4.452;2024-01-15T13:04:10;3.20;99.90
24686;DHT22;12804;51.176;4.452;2024-01-15T13:06:36;3.20;99.90
24686;DHT22;12804;51.176;4.452;2024-01-15T13:09:05;3.20;99.90
24686;DHT22;12804;51.176;4.452;2024-01-15T13:11:32;3.30;99.90
24686;DHT22;12804;51.176;4.452;2024-01-15T13:13:58;3.20;99.90
24686;DHT22;12804;51.176;4.452;2024-01-15T13:16:24;3.10;99.90
24686;DHT22;12804;51.176;4.452;2024-01-15T13:18:52;3.00;99.90
24686;DHT22;12804;51.176;4.452;2024-01-15T13:21:18;3.10;99.90
24686;DHT22;12804;51.176;4.452;2024-01-15T13:23:44;3.10;99.90
24686;DHT22;12804;51.176;4.452;2024-01-15T13:26:09;3.10;99.90
24686;DHT22;12804;51.176;4.452;2024-01-15T13:28:35;3.10;99.90
24686;DHT22;12804;51.176;4.452;2024-01-15T13:31:01;3.10;99.90
24686;DHT22;12804;51.176;4.452;2024-01-15T13:33:27;3.00;99.90
24686;DHT22;12804;51.176;4.452;2024-01-15T13:35:53;3.00;99.90
24686;DHT22;12804;51.176;4.452;2024-01-15T13:38:19;3.00;99.90
24686;DHT22;12804;51.176;4.452;2024-01-15T13:40:45;3.10;99.90
24686;DHT22;12804;51.176;4.452;2024-01-15T13:43:11;3.20;99.90
24686;DHT22;12804;51.176;4.452;2024-01-15T13:45:40;3.20;99.90
24686;DHT22;12804;51.176;4.452;2024-01-15T13:48:07;3.30;99.90
24686;DHT22;12804;51.176;4.452;2024-01-15T13:50:34;3.40;99.90
24686;DHT22;12804;51.176;4.452;2024-01-15T13:53:02;3.40;99.90
24686;DHT22;12804;51.176;4.452;2024-01-15T13:55:29;3.40;99.90
24686;DHT22;12804;51.176;4.452;2024-01-15T13:57:55;3.40;99.90
24686;DHT22;12804;51.176;4.452;2024-01-15T14:00:21;3.30;99.90
24686;DHT22;12804;51.176;4.452;2024-01-15T14:02:48;3.30;99.90
24686;DHT22;12804;51.176;4.452;2024-01-15T14:05:14;3.20;99.90
24686;DHT22;12804;51.176;4.452;2024-01-15T14:07:40;3.20;99.90
24686;DHT22;12804;51.176;4.452;2024-01-15T14:10:07;3.20;99.90
24686;DHT22;12804;51.176;4.452;2024-01-15T14:12:34;3.20;99.90
24686;DHT22;12804;51.176;4.452;2024-01-15T14:15:03;3.40;99.90
24686;DHT22;12804;51.176;4.452;2024-01-15T14:17:29;3.60;99.90
24686;DHT22;12804;51.176;4.452;2024-01-15T14:19:55;3.70;99.90
24686;DHT22;12804;51.176;4.452;2024-01-15T14:22:21;3.70;99.90
24686;DHT22;12804;51.176;4.452;2024-01-15T14:24:47;3.70;99.90
24686;DHT22;12804;51.176;4.452;2024-01-15T14:27:12;3.70;99.90
24686;DHT22;12804;51.176;4.452;2024-01-15T14:29:38;3.70;99.90
24686;DHT22;12804;51.176;4.452;2024-01-15T14:32:04;3.40;99.90
24686;DHT22;12804;51.176;4.452;2024-01-15T14:34:30;3.30;99.90
24686;DHT22;12804;51.176;4.452;2024-01-15T14:36:56;3.40;99.90
24686;DHT22;12804;51.176;4.452;2024-01-15T14:39:23;3.60;99.90
24686;DHT22;12804;51.176;4.452;2024-01-15T14:41:49;3.80;99.90
24686;DHT22;12804;51.176;4.452;2024-01-15T14:44:15;4.00;99.90
24686;DHT22;12804;51.176;4.452;2024-01-15T14:46:41;4.00;99.90
24686;DHT22;12804;51.176;4.452;2024-01-15T14:49:06;4.00;99.90
24686;DHT22;12804;51.176;4.452;2024-01-15T14:51:33;3.90;99.90
24686;DHT22;12804;51.176;4.452;2024-01-15T14:53:59;3.90;99.90
24686;DHT22;12804;51.176;4.452;2024-01-15T14:56:25;3.70;99.90
24686;DHT22;12804;51.176;4.452;2024-01-15T14:58:51;3.50;99.90
24686;DHT22;12804;51.176;4.452;2024-01-15T15:01:16;3.40;99.90
24686;DHT22;12804;51.176;4.452;2024-01-15T15:03:42;3.50;99.90
24686;DHT22;12804;51.176;4.452;2024-01-15T15:06:10;3.50;99.90
24686;DHT22;12804;51.176;4.452;2024-01-15T15:08:36;3.40;99.90
24686;DHT22;12804;51.176;4.452;2024-01-15T15:11:03;3.60;99.90
24686;DHT22;12804;51.176;4.452;2024-01-15T15:13:29;3.70;99.90
24686;DHT22;12804;51.176;4.452;2024-01-15T15:15:55;3.70;99.90
24686;DHT22;12804;51.176;4.452;2024-01-15T15:18:21;3.60;99.90
24686;DHT22;12804;51.176;4.452;2024-01-15T15:20:50;3.80;99.90
24686;DHT22;12804;51.176;4.452;2024-01-15T15:23:17;3.80;99.90
24686;DHT22;12804;51.176;4.452;2024-01-15T15:25:43;3.80;99.90
24686;DHT22;12804;51.176;4.452;2024-01-15T15:28:09;3.80;99.90
24686;DHT22;12804;51.176;4.452;2024-01-15T15:30:37;3.80;99.90
24686;DHT22;12804;51.176;4.452;2024-01-15T15:33:03;3.90;99.90
24686;DHT22;12804;51.176;4.452;2024-01-15T15:35:31;4.00;99.90
24686;DHT22;12804;51.176;4.452;2024-01-15T15:37:57;4.10;99.90
24686;DHT22;12804;51.176;4.452;2024-01-15T15:40:22;4.10;99.90
24686;DHT22;12804;51.176;4.452;2024-01-15T15:42:50;4.10;99.90
24686;DHT22;12804;51.176;4.452;2024-01-15T15:45:16;4.00;99.90
24686;DHT22;12804;51.176;4.452;2024-01-15T15:47:42;5.20;99.90
24686;DHT22;12804;51.176;4.452;2024-01-15T15:50:08;4.70;90.70
24686;DHT22;12804;51.176;4.452;2024-01-15T15:52:34;4.40;94.70
24686;DHT22;12804;51.176;4.452;2024-01-15T15:55:00;4.20;99.90
24686;DHT22;12804;51.176;4.452;2024-01-15T15:57:26;4.10;91.90
24686;DHT22;12804;51.176;4.452;2024-01-15T15:59:53;3.90;87.80